sensor_id;sensor_type;location;lat;lon;timestamp;P1;durP1;ratioP1;P2;durP2;ratioP2
8098;SDS011;4092;47.876;9.372;2022-10-01T00:00:04;6.80;;;3.40;;
8098;SDS011;4092;47.876;9.372;2022-10-01T00:02:35;2.50;;;2.03;;
8098;SDS011;4092;47.876;9.372;2022-10-01T00:05:04;2.83;;;2.27;;
8098;SDS011;4092;47.876;9.372;2022-10-01T00:07:36;6.30;;;3.23;;
8098;SDS011;4092;47.876;9.372;2022-10-01T00:10:04;5.20;;;3.50;;
8098;SDS011;4092;47.876;9.372;2022-10-01T00:12:32;3.93;;;2.27;;
8098;SDS011;4092;47.876;9.372;2022-10-01T00:14:59;4.90;;;2.97;;
8098;SDS011;4092;47.876;9.372;2022-10-01T00:17:26;4.10;;;2.73;;
8098;SDS011;4092;47.876;9.372;2022-10-01T00:19:53;6.80;;;2.63;;
8098;SDS011;4092;47.876;9.372;2022-10-01T00:22:22;5.47;;;3.00;;
8098;SDS011;4092;47.876;9.372;2022-10-01T00:24:49;5.53;;;4.20;;
8098;SDS011;4092;47.876;9.372;2022-10-01T00:27:16;4.87;;;3.30;;
8098;SDS011;4092;47.876;9.372;2022-10-01T00:29:43;4.23;;;2.63;;
8098;SDS011;4092;47.876;9.372;2022-10-01T00:32:10;6.10;;;4.00;;
8098;SDS011;4092;47.876;9.372;2022-10-01T00:34:37;4.77;;;3.07;;
8098;SDS011;4092;47.876;9.372;2022-10-01T00:37:04;5.10;;;3.57;;
8098;SDS011;4092;47.876;9.372;2022-10-01T00:39:35;6.37;;;3.70;;
8098;SDS011;4092;47.876;9.372;2022-10-01T00:42:03;5.60;;;4.70;;
8098;SDS011;4092;47.876;9.372;2022-10-01T00:44:43;11.27;;;3.47;;
8098;SDS011;4092;47.876;9.372;2022-10-01T00:47:12;10.53;;;4.23;;
8098;SDS011;4092;47.876;9.372;2022-10-01T00:49:55;6.53;;;4.23;;
8098;SDS011;4092;47.876;9.372;2022-10-01T00:52:27;6.57;;;4.53;;
8098;SDS011;4092;47.876;9.372;2022-10-01T00:54:59;5.37;;;3.50;;
8098;SDS011;4092;47.876;9.372;2022-10-01T00:57:30;4.90;;;3.37;;
8098;SDS011;4092;47.876;9.372;2022-10-01T01:00:00;5.50;;;4.20;;
8098;SDS011;4092;47.876;9.372;2022-10-01T01:02:30;8.03;;;3.87;;
8098;SDS011;4092;47.876;9.372;2022-10-01T01:04:57;10.77;;;5.00;;
8098;SDS011;4092;47.876;9.372;2022-10-01T01:07:25;7.90;;;4.70;;
8098;SDS011;4092;47.876;9.372;2022-10-01T01:09:53;6.50;;;4.40;;
8098;SDS011;4092;47.876;9.372;2022-10-01T01:12:25;7.97;;;5.43;;
8098;SDS011;4092;47.876;9.372;2022-10-01T01:15:03;9.10;;;5.83;;
8098;SDS011;4092;47.876;9.372;2022-10-01T01:17:41;8.87;;;6.00;;
8098;SDS011;4092;47.876;9.372;2022-10-01T01:20:27;7.27;;;5.13;;
8098;SDS011;4092;47.876;9.372;2022-10-01T01:23:24;6.30;;;4.77;;
8098;SDS011;4092;47.876;9.372;2022-10-01T01:26:14;13.27;;;5.37;;
8098;SDS011;4092;47.876;9.372;2022-10-01T01:28:51;6.63;;;4.00;;
8098;SDS011;4092;47.876;9.372;2022-10-01T01:31:26;8.97;;;5.60;;
8098;SDS011;4092;47.876;9.372;2022-10-01T01:33:57;9.53;;;5.90;;
8098;SDS011;4092;47.876;9.372;2022-10-01T01:36:27;11.27;;;6.80;;
8098;SDS011;4092;47.876;9.372;2022-10-01T01:38:59;9.47;;;5.87;;
8098;SDS011;4092;47.876;9.372;2022-10-01T01:41:29;9.90;;;7.17;;
8098;SDS011;4092;47.876;9.372;2022-10-01T01:44:02;6.97;;;4.57;;
8098;SDS011;4092;47.876;9.372;2022-10-01T01:46:34;9.13;;;5.73;;
8098;SDS011;4092;47.876;9.372;2022-10-01T01:49:04;10.13;;;5.77;;
8098;SDS011;4092;47.876;9.372;2022-10-01T01:51:33;7.27;;;5.93;;
8098;SDS011;4092;47.876;9.372;2022-10-01T01:54:06;9.30;;;5.07;;
8098;SDS011;4092;47.876;9.372;2022-10-01T01:56:34;11.10;;;6.70;;
8098;SDS011;4092;47.876;9.372;2022-10-01T01:59:03;12.57;;;6.70;;
8098;SDS011;4092;47.876;9.372;2022-10-01T02:01:33;10.17;;;4.97;;
8098;SDS011;4092;47.876;9.372;2022-10-01T02:04:03;9.10;;;5.03;;
8098;SDS011;4092;47.876;9.372;2022-10-01T02:06:36;10.57;;;7.30;;
8098;SDS011;4092;47.876;9.372;2022-10-01T02:09:26;7.87;;;5.50;;
8098;SDS011;4092;47.876;9.372;2022-10-01T02:12:01;6.30;;;4.50;;
8098;SDS011;4092;47.876;9.372;2022-10-01T02:14:36;12.00;;;7.10;;
8098;SDS011;4092;47.876;9.372;2022-10-01T02:17:11;12.83;;;7.27;;
8098;SDS011;4092;47.876;9.372;2022-10-01T02:19:44;11.20;;;5.83;;
8098;SDS011;4092;47.876;9.372;2022-10-01T02:22:20;10.37;;;5.30;;
8098;SDS011;4092;47.876;9.372;2022-10-01T02:24:54;7.80;;;4.93;;
8098;SDS011;4092;47.876;9.372;2022-10-01T02:27:29;10.40;;;5.90;;
8098;SDS011;4092;47.876;9.372;2022-10-01T02:30:05;11.87;;;7.00;;
8098;SDS011;4092;47.876;9.372;2022-10-01T02:32:34;14.00;;;6.83;;
8098;SDS011;4092;47.876;9.372;2022-10-01T02:35:04;12.67;;;7.07;;
8098;SDS011;4092;47.876;9.372;2022-10-01T02:37:33;11.30;;;6.80;;
8098;SDS011;4092;47.876;9.372;2022-10-01T02:40:03;12.00;;;5.43;;
8098;SDS011;4092;47.876;9.372;2022-10-01T02:42:33;13.23;;;6.30;;
8098;SDS011;4092;47.876;9.372;2022-10-01T02:45:02;13.73;;;7.23;;
8098;SDS011;4092;47.876;9.372;2022-10-01T02:47:33;10.43;;;6.87;;
8098;SDS011;4092;47.876;9.372;2022-10-01T02:50:05;7.97;;;5.60;;
8098;SDS011;4092;47.876;9.372;2022-10-01T02:52:34;13.07;;;7.13;;
8098;SDS011;4092;47.876;9.372;2022-10-01T02:55:07;14.27;;;8.13;;
8098;SDS011;4092;47.876;9.372;2022-10-01T02:57:38;12.90;;;5.97;;
8098;SDS011;4092;47.876;9.372;2022-10-01T03:00:08;11.87;;;6.87;;
8098;SDS011;4092;47.876;9.372;2022-10-01T03:02:37;15.83;;;6.80;;
8098;SDS011;4092;47.876;9.372;2022-10-01T03:05:05;11.80;;;6.97;;
8098;SDS011;4092;47.876;9.372;2022-10-01T03:07:33;11.73;;;6.40;;
8098;SDS011;4092;47.876;9.372;2022-10-01T03:10:00;12.13;;;7.03;;
8098;SDS011;4092;47.876;9.372;2022-10-01T03:12:28;11.00;;;5.87;;
8098;SDS011;4092;47.876;9.372;2022-10-01T03:14:55;10.40;;;6.83;;
8098;SDS011;4092;47.876;9.372;2022-10-01T03:17:24;13.43;;;7.13;;
8098;SDS011;4092;47.876;9.372;2022-10-01T03:19:51;9.70;;;5.70;;
8098;SDS011;4092;47.876;9.372;2022-10-01T03:22:18;13.63;;;7.07;;
8098;SDS011;4092;47.876;9.372;2022-10-01T03:24:46;14.93;;;6.27;;
8098;SDS011;4092;47.876;9.372;2022-10-01T03:27:14;9.57;;;7.10;;
8098;SDS011;4092;47.876;9.372;2022-10-01T03:29:41;12.50;;;7.60;;
8098;SDS011;4092;47.876;9.372;2022-10-01T03:32:09;7.83;;;4.77;;
8098;SDS011;4092;47.876;9.372;2022-10-01T03:34:37;8.10;;;4.70;;
8098;SDS011;4092;47.876;9.372;2022-10-01T03:37:04;8.30;;;4.80;;
8098;SDS011;4092;47.876;9.372;2022-10-01T03:39:32;11.43;;;5.77;;
8098;SDS011;4092;47.876;9.372;2022-10-01T03:41:59;8.53;;;6.13;;
8098;SDS011;4092;47.876;9.372;2022-10-01T03:44:26;8.87;;;5.00;;
8098;SDS011;4092;47.876;9.372;2022-10-01T03:46:53;8.53;;;5.60;;
8098;SDS011;4092;47.876;9.372;2022-10-01T03:49:20;7.90;;;5.20;;
8098;SDS011;4092;47.876;9.372;2022-10-01T03:51:49;11.80;;;6.60;;
8098;SDS011;4092;47.876;9.372;2022-10-01T03:54:16;10.47;;;6.30;;
8098;SDS011;4092;47.876;9.372;2022-10-01T03:56:44;9.37;;;5.67;;
8098;SDS011;4092;47.876;9.372;2022-10-01T03:59:12;7.07;;;4.93;;
8098;SDS011;4092;47.876;9.372;2022-10-01T04:01:39;10.17;;;5.10;;
8098;SDS011;4092;47.876;9.372;2022-10-01T04:04:06;7.77;;;4.50;;
8098;SDS011;4092;47.876;9.372;2022-10-01T04:06:33;13.30;;;7.90;;
8098;SDS011;4092;47.876;9.372;2022-10-01T04:09:02;12.17;;;6.00;;
8098;SDS011;4092;47.876;9.372;2022-10-01T04:11:29;7.30;;;4.83;;
8098;SDS011;4092;47.876;9.372;2022-10-01T04:13:56;7.63;;;5.60;;
8098;SDS011;4092;47.876;9.372;2022-10-01T04:16:24;9.10;;;4.53;;
8098;SDS011;4092;47.876;9.372;2022-10-01T04:18:51;9.17;;;4.47;;
8098;SDS011;4092;47.876;9.372;2022-10-01T04:21:18;7.57;;;5.53;;
8098;SDS011;4092;47.876;9.372;2022-10-01T04:23:45;8.60;;;4.97;;
8098;SDS011;4092;47.876;9.372;2022-10-01T04:26:15;12.40;;;7.70;;
8098;SDS011;4092;47.876;9.372;2022-10-01T04:28:43;8.73;;;5.83;;
8098;SDS011;4092;47.876;9.372;2022-10-01T04:31:11;9.97;;;5.73;;
8098;SDS011;4092;47.876;9.372;2022-10-01T04:33:50;7.53;;;5.70;;
8098;SDS011;4092;47.876;9.372;2022-10-01T04:36:18;11.40;;;6.80;;
8098;SDS011;4092;47.876;9.372;2022-10-01T04:38:45;10.40;;;6.63;;
8098;SDS011;4092;47.876;9.372;2022-10-01T04:41:12;11.63;;;6.20;;
8098;SDS011;4092;47.876;9.372;2022-10-01T04:43:41;12.00;;;5.63;;
8098;SDS011;4092;47.876;9.372;2022-10-01T04:46:08;15.70;;;7.83;;
8098;SDS011;4092;47.876;9.372;2022-10-01T04:48:35;17.20;;;8.00;;
8098;SDS011;4092;47.876;9.372;2022-10-01T04:51:02;17.97;;;9.00;;
8098;SDS011;4092;47.876;9.372;2022-10-01T04:53:29;17.80;;;8.03;;
8098;SDS011;4092;47.876;9.372;2022-10-01T04:55:56;13.60;;;7.23;;
8098;SDS011;4092;47.876;9.372;2022-10-01T04:58:23;16.47;;;8.77;;
8098;SDS011;4092;47.876;9.372;2022-10-01T05:00:52;13.10;;;8.40;;
8098;SDS011;4092;47.876;9.372;2022-10-01T05:03:19;11.67;;;8.00;;
8098;SDS011;4092;47.876;9.372;2022-10-01T05:05:46;14.93;;;10.73;;
8098;SDS011;4092;47.876;9.372;2022-10-01T05:08:13;15.30;;;8.07;;
8098;SDS011;4092;47.876;9.372;2022-10-01T05:10:40;16.40;;;7.90;;
8098;SDS011;4092;47.876;9.372;2022-10-01T05:13:08;12.97;;;8.97;;
8098;SDS011;4092;47.876;9.372;2022-10-01T05:15:35;8.97;;;6.23;;
8098;SDS011;4092;47.876;9.372;2022-10-01T05:18:04;9.97;;;6.40;;
8098;SDS011;4092;47.876;9.372;2022-10-01T05:20:32;20.10;;;7.23;;
8098;SDS011;4092;47.876;9.372;2022-10-01T05:22:59;15.73;;;7.67;;
8098;SDS011;4092;47.876;9.372;2022-10-01T05:25:26;10.23;;;6.33;;
8098;SDS011;4092;47.876;9.372;2022-10-01T05:27:58;8.97;;;5.97;;
8098;SDS011;4092;47.876;9.372;2022-10-01T05:30:29;14.33;;;8.83;;
8098;SDS011;4092;47.876;9.372;2022-10-01T05:32:57;9.97;;;5.40;;
8098;SDS011;4092;47.876;9.372;2022-10-01T05:35:27;11.67;;;7.30;;
8098;SDS011;4092;47.876;9.372;2022-10-01T05:37:55;8.17;;;5.40;;
8098;SDS011;4092;47.876;9.372;2022-10-01T05:40:23;12.03;;;6.03;;
8098;SDS011;4092;47.876;9.372;2022-10-01T05:42:53;9.93;;;6.47;;
8098;SDS011;4092;47.876;9.372;2022-10-01T05:45:21;10.20;;;5.37;;
8098;SDS011;4092;47.876;9.372;2022-10-01T05:47:54;13.10;;;5.60;;
8098;SDS011;4092;47.876;9.372;2022-10-01T05:50:22;6.93;;;6.10;;
8098;SDS011;4092;47.876;9.372;2022-10-01T05:52:52;10.60;;;5.03;;
8098;SDS011;4092;47.876;9.372;2022-10-01T05:55:21;9.10;;;6.40;;
8098;SDS011;4092;47.876;9.372;2022-10-01T05:57:57;9.27;;;5.53;;
8098;SDS011;4092;47.876;9.372;2022-10-01T06:00:26;11.27;;;5.70;;
8098;SDS011;4092;47.876;9.372;2022-10-01T06:02:55;8.60;;;4.90;;
8098;SDS011;4092;47.876;9.372;2022-10-01T06:05:25;9.60;;;6.40;;
8098;SDS011;4092;47.876;9.372;2022-10-01T06:07:55;9.57;;;5.70;;
8098;SDS011;4092;47.876;9.372;2022-10-01T06:10:25;9.10;;;5.00;;
8098;SDS011;4092;47.876;9.372;2022-10-01T06:12:57;7.13;;;5.53;;
8098;SDS011;4092;47.876;9.372;2022-10-01T06:15:37;8.53;;;4.97;;
8098;SDS011;4092;47.876;9.372;2022-10-01T06:18:25;7.90;;;5.00;;
8098;SDS011;4092;47.876;9.372;2022-10-01T06:21:13;8.97;;;5.43;;
8098;SDS011;4092;47.876;9.372;2022-10-01T06:23:41;5.20;;;4.10;;
8098;SDS011;4092;47.876;9.372;2022-10-01T06:26:09;8.63;;;4.20;;
8098;SDS011;4092;47.876;9.372;2022-10-01T06:28:36;8.00;;;5.57;;
8098;SDS011;4092;47.876;9.372;2022-10-01T06:31:03;6.07;;;4.83;;
8098;SDS011;4092;47.876;9.372;2022-10-01T06:33:30;8.03;;;4.50;;
8098;SDS011;4092;47.876;9.372;2022-10-01T06:35:57;10.67;;;5.50;;
8098;SDS011;4092;47.876;9.372;2022-10-01T06:38:25;8.10;;;5.47;;
8098;SDS011;4092;47.876;9.372;2022-10-01T06:40:54;7.80;;;3.83;;
8098;SDS011;4092;47.876;9.372;2022-10-01T06:43:22;8.93;;;4.60;;
8098;SDS011;4092;47.876;9.372;2022-10-01T06:45:50;5.53;;;4.10;;
8098;SDS011;4092;47.876;9.372;2022-10-01T06:48:18;7.93;;;4.50;;
8098;SDS011;4092;47.876;9.372;2022-10-01T06:50:46;7.90;;;4.10;;
8098;SDS011;4092;47.876;9.372;2022-10-01T06:53:16;5.67;;;4.10;;
8098;SDS011;4092;47.876;9.372;2022-10-01T06:55:43;7.43;;;4.00;;
8098;SDS011;4092;47.876;9.372;2022-10-01T06:58:14;6.70;;;4.07;;
8098;SDS011;4092;47.876;9.372;2022-10-01T07:00:42;6.60;;;3.70;;
8098;SDS011;4092;47.876;9.372;2022-10-01T07:03:10;5.90;;;3.90;;
8098;SDS011;4092;47.876;9.372;2022-10-01T07:05:40;6.40;;;4.60;;
8098;SDS011;4092;47.876;9.372;2022-10-01T07:08:07;7.17;;;4.30;;
8098;SDS011;4092;47.876;9.372;2022-10-01T07:10:35;4.13;;;3.77;;
8098;SDS011;4092;47.876;9.372;2022-10-01T07:13:05;8.00;;;4.33;;
8098;SDS011;4092;47.876;9.372;2022-10-01T07:15:35;7.83;;;4.57;;
8098;SDS011;4092;47.876;9.372;2022-10-01T07:18:02;7.37;;;4.83;;
8098;SDS011;4092;47.876;9.372;2022-10-01T07:20:32;7.60;;;5.47;;
8098;SDS011;4092;47.876;9.372;2022-10-01T07:23:04;4.60;;;2.90;;
8098;SDS011;4092;47.876;9.372;2022-10-01T07:25:31;5.23;;;2.97;;
8098;SDS011;4092;47.876;9.372;2022-10-01T07:27:59;7.53;;;4.67;;
8098;SDS011;4092;47.876;9.372;2022-10-01T07:30:29;5.83;;;3.37;;
8098;SDS011;4092;47.876;9.372;2022-10-01T07:32:58;3.30;;;2.80;;
8098;SDS011;4092;47.876;9.372;2022-10-01T07:35:25;6.60;;;3.33;;
8098;SDS011;4092;47.876;9.372;2022-10-01T07:37:52;6.70;;;3.77;;
8098;SDS011;4092;47.876;9.372;2022-10-01T07:40:20;6.23;;;3.63;;
8098;SDS011;4092;47.876;9.372;2022-10-01T07:42:51;4.20;;;3.77;;
8098;SDS011;4092;47.876;9.372;2022-10-01T07:45:19;4.63;;;2.90;;
8098;SDS011;4092;47.876;9.372;2022-10-01T07:47:50;4.37;;;3.37;;
8098;SDS011;4092;47.876;9.372;2022-10-01T07:50:20;5.57;;;4.30;;
8098;SDS011;4092;47.876;9.372;2022-10-01T07:52:51;3.10;;;2.80;;
8098;SDS011;4092;47.876;9.372;2022-10-01T07:55:19;7.10;;;3.10;;
8098;SDS011;4092;47.876;9.372;2022-10-01T07:57:50;5.50;;;3.03;;
8098;SDS011;4092;47.876;9.372;2022-10-01T08:00:18;3.73;;;2.40;;
8098;SDS011;4092;47.876;9.372;2022-10-01T08:02:46;3.63;;;3.00;;
8098;SDS011;4092;47.876;9.372;2022-10-01T08:05:15;3.63;;;2.70;;
8098;SDS011;4092;47.876;9.372;2022-10-01T08:07:47;4.33;;;2.37;;
8098;SDS011;4092;47.876;9.372;2022-10-01T08:10:15;4.17;;;2.33;;
8098;SDS011;4092;47.876;9.372;2022-10-01T08:12:44;2.87;;;2.00;;
8098;SDS011;4092;47.876;9.372;2022-10-01T08:15:12;2.17;;;1.90;;
8098;SDS011;4092;47.876;9.372;2022-10-01T08:17:41;4.00;;;1.77;;
8098;SDS011;4092;47.876;9.372;2022-10-01T08:20:09;2.70;;;2.10;;
8098;SDS011;4092;47.876;9.372;2022-10-01T08:22:37;2.97;;;2.67;;
8098;SDS011;4092;47.876;9.372;2022-10-01T08:25:10;1.43;;;1.33;;
8098;SDS011;4092;47.876;9.372;2022-10-01T08:27:38;2.30;;;2.03;;
8098;SDS011;4092;47.876;9.372;2022-10-01T08:30:05;3.13;;;2.73;;
8098;SDS011;4092;47.876;9.372;2022-10-01T08:32:33;4.03;;;2.17;;
8098;SDS011;4092;47.876;9.372;2022-10-01T08:35:00;4.50;;;2.70;;
8098;SDS011;4092;47.876;9.372;2022-10-01T08:37:28;1.97;;;1.77;;
8098;SDS011;4092;47.876;9.372;2022-10-01T08:39:56;2.67;;;2.07;;
8098;SDS011;4092;47.876;9.372;2022-10-01T08:42:37;3.70;;;2.33;;
8098;SDS011;4092;47.876;9.372;2022-10-01T08:45:24;2.70;;;1.87;;
8098;SDS011;4092;47.876;9.372;2022-10-01T08:47:58;2.03;;;1.83;;
8098;SDS011;4092;47.876;9.372;2022-10-01T08:50:34;2.63;;;1.80;;
8098;SDS011;4092;47.876;9.372;2022-10-01T08:53:10;4.17;;;2.03;;
8098;SDS011;4092;47.876;9.372;2022-10-01T08:55:42;2.07;;;1.60;;
8098;SDS011;4092;47.876;9.372;2022-10-01T08:58:14;2.17;;;1.80;;
8098;SDS011;4092;47.876;9.372;2022-10-01T09:00:48;1.97;;;1.80;;
8098;SDS011;4092;47.876;9.372;2022-10-01T09:03:16;3.53;;;1.93;;
8098;SDS011;4092;47.876;9.372;2022-10-01T09:08:41;1.80;;;1.70;;
8098;SDS011;4092;47.876;9.372;2022-10-01T09:11:25;4.70;;;2.00;;
8098;SDS011;4092;47.876;9.372;2022-10-01T09:14:15;2.00;;;1.80;;
8098;SDS011;4092;47.876;9.372;2022-10-01T09:16:58;2.40;;;1.80;;
8098;SDS011;4092;47.876;9.372;2022-10-01T09:19:50;2.43;;;1.60;;
8098;SDS011;4092;47.876;9.372;2022-10-01T09:22:30;3.20;;;2.20;;
8098;SDS011;4092;47.876;9.372;2022-10-01T09:25:09;3.43;;;2.30;;
8098;SDS011;4092;47.876;9.372;2022-10-01T09:27:39;1.97;;;1.70;;
8098;SDS011;4092;47.876;9.372;2022-10-01T09:30:10;2.87;;;1.50;;
8098;SDS011;4092;47.876;9.372;2022-10-01T09:32:41;2.00;;;1.73;;
8098;SDS011;4092;47.876;9.372;2022-10-01T09:35:19;2.80;;;2.30;;
8098;SDS011;4092;47.876;9.372;2022-10-01T09:37:55;3.70;;;2.33;;
8098;SDS011;4092;47.876;9.372;2022-10-01T09:40:26;2.30;;;1.63;;
8098;SDS011;4092;47.876;9.372;2022-10-01T09:43:00;3.73;;;2.00;;
8098;SDS011;4092;47.876;9.372;2022-10-01T09:45:29;2.00;;;1.47;;
8098;SDS011;4092;47.876;9.372;2022-10-01T09:47:59;1.37;;;1.20;;
8098;SDS011;4092;47.876;9.372;2022-10-01T09:50:31;2.63;;;2.17;;
8098;SDS011;4092;47.876;9.372;2022-10-01T09:53:07;3.00;;;1.80;;
8098;SDS011;4092;47.876;9.372;2022-10-01T09:55:41;2.23;;;1.40;;
8098;SDS011;4092;47.876;9.372;2022-10-01T09:58:11;3.40;;;1.63;;
8098;SDS011;4092;47.876;9.372;2022-10-01T10:00:44;4.07;;;2.20;;
8098;SDS011;4092;47.876;9.372;2022-10-01T10:03:20;2.70;;;1.70;;
8098;SDS011;4092;47.876;9.372;2022-10-01T10:05:48;1.67;;;1.10;;
8098;SDS011;4092;47.876;9.372;2022-10-01T10:08:18;2.23;;;2.03;;
8098;SDS011;4092;47.876;9.372;2022-10-01T10:10:49;2.33;;;1.87;;
8098;SDS011;4092;47.876;9.372;2022-10-01T10:13:19;3.30;;;1.73;;
8098;SDS011;4092;47.876;9.372;2022-10-01T10:15:57;6.33;;;1.90;;
8098;SDS011;4092;47.876;9.372;2022-10-01T10:18:27;2.33;;;1.40;;
8098;SDS011;4092;47.876;9.372;2022-10-01T10:20:58;1.30;;;1.20;;
8098;SDS011;4092;47.876;9.372;2022-10-01T10:23:31;1.73;;;1.50;;
8098;SDS011;4092;47.876;9.372;2022-10-01T10:25:59;2.37;;;2.17;;
8098;SDS011;4092;47.876;9.372;2022-10-01T10:28:28;1.93;;;1.60;;
8098;SDS011;4092;47.876;9.372;2022-10-01T10:31:08;1.83;;;1.30;;
8098;SDS011;4092;47.876;9.372;2022-10-01T10:33:44;3.20;;;2.53;;
8098;SDS011;4092;47.876;9.372;2022-10-01T10:36:13;3.60;;;1.97;;
8098;SDS011;4092;47.876;9.372;2022-10-01T10:38:43;3.20;;;1.77;;
8098;SDS011;4092;47.876;9.372;2022-10-01T10:41:14;3.43;;;2.13;;
8098;SDS011;4092;47.876;9.372;2022-10-01T10:43:56;1.50;;;1.40;;
8098;SDS011;4092;47.876;9.372;2022-10-01T10:46:44;2.87;;;1.83;;
8098;SDS011;4092;47.876;9.372;2022-10-01T10:49:16;2.90;;;1.80;;
8098;SDS011;4092;47.876;9.372;2022-10-01T10:51:55;1.77;;;1.40;;
8098;SDS011;4092;47.876;9.372;2022-10-01T10:54:27;1.50;;;1.10;;
8098;SDS011;4092;47.876;9.372;2022-10-01T10:56:59;1.83;;;1.40;;
8098;SDS011;4092;47.876;9.372;2022-10-01T10:59:29;1.50;;;1.40;;
8098;SDS011;4092;47.876;9.372;2022-10-01T11:02:01;1.73;;;1.10;;
8098;SDS011;4092;47.876;9.372;2022-10-01T11:04:40;4.60;;;1.70;;
8098;SDS011;4092;47.876;9.372;2022-10-01T11:07:09;1.23;;;1.13;;
8098;SDS011;4092;47.876;9.372;2022-10-01T11:09:43;1.10;;;0.90;;
8098;SDS011;4092;47.876;9.372;2022-10-01T11:12:27;1.63;;;1.30;;
8098;SDS011;4092;47.876;9.372;2022-10-01T11:15:14;1.57;;;1.03;;
8098;SDS011;4092;47.876;9.372;2022-10-01T11:18:02;3.63;;;1.70;;
8098;SDS011;4092;47.876;9.372;2022-10-01T11:20:39;1.93;;;1.73;;
8098;SDS011;4092;47.876;9.372;2022-10-01T11:23:20;1.20;;;0.93;;
8098;SDS011;4092;47.876;9.372;2022-10-01T11:26:07;1.97;;;1.57;;
8098;SDS011;4092;47.876;9.372;2022-10-01T11:28:46;1.30;;;1.20;;
8098;SDS011;4092;47.876;9.372;2022-10-01T11:31:26;2.23;;;1.43;;
8098;SDS011;4092;47.876;9.372;2022-10-01T11:34:08;1.50;;;1.40;;
8098;SDS011;4092;47.876;9.372;2022-10-01T11:36:48;8.70;;;1.30;;
8098;SDS011;4092;47.876;9.372;2022-10-01T11:39:24;1.80;;;1.23;;
8098;SDS011;4092;47.876;9.372;2022-10-01T11:41:55;2.07;;;1.20;;
8098;SDS011;4092;47.876;9.372;2022-10-01T11:44:28;1.43;;;1.10;;
8098;SDS011;4092;47.876;9.372;2022-10-01T11:46:58;1.73;;;1.53;;
8098;SDS011;4092;47.876;9.372;2022-10-01T11:49:40;1.40;;;1.30;;
8098;SDS011;4092;47.876;9.372;2022-10-01T11:52:18;1.93;;;1.80;;
8098;SDS011;4092;47.876;9.372;2022-10-01T11:54:54;2.40;;;1.30;;
8098;SDS011;4092;47.876;9.372;2022-10-01T11:57:48;1.83;;;1.57;;
8098;SDS011;4092;47.876;9.372;2022-10-01T12:00:38;1.47;;;1.37;;
8098;SDS011;4092;47.876;9.372;2022-10-01T12:03:09;1.50;;;1.40;;
8098;SDS011;4092;47.876;9.372;2022-10-01T12:05:42;1.40;;;1.10;;
8098;SDS011;4092;47.876;9.372;2022-10-01T12:08:11;1.50;;;1.07;;
8098;SDS011;4092;47.876;9.372;2022-10-01T12:10:46;1.40;;;1.10;;
8098;SDS011;4092;47.876;9.372;2022-10-01T12:13:20;1.63;;;1.30;;
8098;SDS011;4092;47.876;9.372;2022-10-01T12:15:54;1.30;;;0.90;;
8098;SDS011;4092;47.876;9.372;2022-10-01T12:18:27;1.30;;;1.00;;
8098;SDS011;4092;47.876;9.372;2022-10-01T12:20:57;1.23;;;1.13;;
8098;SDS011;4092;47.876;9.372;2022-10-01T12:23:27;1.50;;;1.30;;
8098;SDS011;4092;47.876;9.372;2022-10-01T12:25:59;2.23;;;1.47;;
8098;SDS011;4092;47.876;9.372;2022-10-01T12:28:33;3.57;;;2.00;;
8098;SDS011;4092;47.876;9.372;2022-10-01T12:31:06;1.53;;;1.23;;
8098;SDS011;4092;47.876;9.372;2022-10-01T12:33:50;1.53;;;0.90;;
8098;SDS011;4092;47.876;9.372;2022-10-01T12:36:28;1.93;;;1.53;;
8098;SDS011;4092;47.876;9.372;2022-10-01T12:39:09;1.90;;;1.30;;
8098;SDS011;4092;47.876;9.372;2022-10-01T12:41:47;1.40;;;1.03;;
8098;SDS011;4092;47.876;9.372;2022-10-01T12:44:28;1.80;;;1.30;;
8098;SDS011;4092;47.876;9.372;2022-10-01T12:47:07;8.43;;;3.30;;
8098;SDS011;4092;47.876;9.372;2022-10-01T12:49:44;1.63;;;1.00;;
8098;SDS011;4092;47.876;9.372;2022-10-01T12:52:18;2.83;;;1.83;;
8098;SDS011;4092;47.876;9.372;2022-10-01T12:55:03;0.90;;;0.70;;
8098;SDS011;4092;47.876;9.372;2022-10-01T12:57:54;1.13;;;1.03;;
8098;SDS011;4092;47.876;9.372;2022-10-01T13:00:29;2.10;;;0.90;;
8098;SDS011;4092;47.876;9.372;2022-10-01T13:06:10;2.30;;;1.00;;
8098;SDS011;4092;47.876;9.372;2022-10-01T13:08:54;1.97;;;0.90;;
8098;SDS011;4092;47.876;9.372;2022-10-01T13:11:31;1.97;;;1.20;;
8098;SDS011;4092;47.876;9.372;2022-10-01T13:14:10;1.10;;;1.00;;
8098;SDS011;4092;47.876;9.372;2022-10-01T13:16:41;1.53;;;1.30;;
8098;SDS011;4092;47.876;9.372;2022-10-01T13:19:14;1.50;;;1.03;;
8098;SDS011;4092;47.876;9.372;2022-10-01T13:21:50;1.00;;;0.70;;
8098;SDS011;4092;47.876;9.372;2022-10-01T13:24:26;1.47;;;1.10;;
8098;SDS011;4092;47.876;9.372;2022-10-01T13:27:01;0.97;;;0.80;;
8098;SDS011;4092;47.876;9.372;2022-10-01T13:29:35;1.00;;;0.90;;
8098;SDS011;4092;47.876;9.372;2022-10-01T13:32:30;1.30;;;0.87;;
8098;SDS011;4092;47.876;9.372;2022-10-01T13:35:00;1.00;;;0.83;;
8098;SDS011;4092;47.876;9.372;2022-10-01T13:37:32;1.00;;;0.83;;
8098;SDS011;4092;47.876;9.372;2022-10-01T13:40:03;1.50;;;0.83;;
8098;SDS011;4092;47.876;9.372;2022-10-01T13:42:46;1.00;;;0.83;;
8098;SDS011;4092;47.876;9.372;2022-10-01T13:45:20;1.70;;;0.90;;
8098;SDS011;4092;47.876;9.372;2022-10-01T13:48:02;1.03;;;0.70;;
8098;SDS011;4092;47.876;9.372;2022-10-01T13:50:32;1.20;;;0.93;;
8098;SDS011;4092;47.876;9.372;2022-10-01T13:53:06;1.10;;;0.80;;
8098;SDS011;4092;47.876;9.372;2022-10-01T13:55:42;1.20;;;0.70;;
8098;SDS011;4092;47.876;9.372;2022-10-01T13:58:20;2.40;;;0.83;;
8098;SDS011;4092;47.876;9.372;2022-10-01T14:00:50;1.10;;;0.80;;
8098;SDS011;4092;47.876;9.372;2022-10-01T14:03:26;0.90;;;0.63;;
8098;SDS011;4092;47.876;9.372;2022-10-01T14:06:04;1.00;;;0.80;;
8098;SDS011;4092;47.876;9.372;2022-10-01T14:08:39;1.30;;;0.90;;
8098;SDS011;4092;47.876;9.372;2022-10-01T14:11:11;1.00;;;0.80;;
8098;SDS011;4092;47.876;9.372;2022-10-01T14:14:01;1.20;;;0.70;;
8098;SDS011;4092;47.876;9.372;2022-10-01T14:16:53;1.33;;;1.07;;
8098;SDS011;4092;47.876;9.372;2022-10-01T14:19:22;3.97;;;1.03;;
8098;SDS011;4092;47.876;9.372;2022-10-01T14:21:57;1.30;;;0.80;;
8098;SDS011;4092;47.876;9.372;2022-10-01T14:25:05;2.70;;;0.87;;
8098;SDS011;4092;47.876;9.372;2022-10-01T14:27:59;1.10;;;0.90;;
8098;SDS011;4092;47.876;9.372;2022-10-01T14:30:43;1.90;;;1.00;;
8098;SDS011;4092;47.876;9.372;2022-10-01T14:33:32;1.70;;;0.97;;
8098;SDS011;4092;47.876;9.372;2022-10-01T14:36:14;1.00;;;0.80;;
8098;SDS011;4092;47.876;9.372;2022-10-01T14:38:43;1.10;;;0.80;;
8098;SDS011;4092;47.876;9.372;2022-10-01T14:41:15;1.30;;;1.20;;
8098;SDS011;4092;47.876;9.372;2022-10-01T14:43:45;1.53;;;1.07;;
8098;SDS011;4092;47.876;9.372;2022-10-01T14:46:14;1.10;;;1.00;;
8098;SDS011;4092;47.876;9.372;2022-10-01T14:48:42;1.27;;;0.90;;
8098;SDS011;4092;47.876;9.372;2022-10-01T14:51:21;1.20;;;1.10;;
8098;SDS011;4092;47.876;9.372;2022-10-01T14:53:50;1.77;;;0.80;;
8098;SDS011;4092;47.876;9.372;2022-10-01T14:56:18;1.57;;;0.80;;
8098;SDS011;4092;47.876;9.372;2022-10-01T14:58:52;1.30;;;1.10;;
8098;SDS011;4092;47.876;9.372;2022-10-01T15:01:23;1.10;;;1.00;;
8098;SDS011;4092;47.876;9.372;2022-10-01T15:03:51;1.30;;;1.20;;
8098;SDS011;4092;47.876;9.372;2022-10-01T15:06:20;1.20;;;0.93;;
8098;SDS011;4092;47.876;9.372;2022-10-01T15:08:48;1.37;;;1.00;;
8098;SDS011;4092;47.876;9.372;2022-10-01T15:11:20;1.93;;;0.87;;
8098;SDS011;4092;47.876;9.372;2022-10-01T15:13:51;1.63;;;0.70;;
8098;SDS011;4092;47.876;9.372;2022-10-01T15:16:21;0.90;;;0.70;;
8098;SDS011;4092;47.876;9.372;2022-10-01T15:18:50;1.53;;;1.10;;
8098;SDS011;4092;47.876;9.372;2022-10-01T15:21:24;1.77;;;1.10;;
8098;SDS011;4092;47.876;9.372;2022-10-01T15:23:55;1.13;;;0.97;;
8098;SDS011;4092;47.876;9.372;2022-10-01T15:26:24;0.90;;;0.73;;
8098;SDS011;4092;47.876;9.372;2022-10-01T15:29:01;2.80;;;1.07;;
8098;SDS011;4092;47.876;9.372;2022-10-01T15:31:29;1.03;;;0.80;;
8098;SDS011;4092;47.876;9.372;2022-10-01T15:33:58;1.20;;;0.90;;
8098;SDS011;4092;47.876;9.372;2022-10-01T15:36:26;1.40;;;1.30;;
8098;SDS011;4092;47.876;9.372;2022-10-01T15:38:54;4.40;;;1.17;;
8098;SDS011;4092;47.876;9.372;2022-10-01T15:41:22;1.47;;;1.00;;
8098;SDS011;4092;47.876;9.372;2022-10-01T15:43:54;0.90;;;0.70;;
8098;SDS011;4092;47.876;9.372;2022-10-01T15:46:39;2.00;;;1.20;;
8098;SDS011;4092;47.876;9.372;2022-10-01T15:49:10;1.00;;;0.90;;